sensor_id;sensor_type;location;lat;lon;timestamp;P1;durP1;ratioP1;P2;durP2;ratioP2
15878;SDS011;61999;51.514;14.614;2024-01-30T00:00:28;14.43;;;9.53;;
15878;SDS011;61999;51.514;14.614;2024-01-30T00:02:56;15.53;;;9.97;;
15878;SDS011;61999;51.514;14.614;2024-01-30T00:05:25;11.97;;;9.37;;
15878;SDS011;61999;51.514;14.614;2024-01-30T00:07:53;12.20;;;8.87;;
15878;SDS011;61999;51.514;14.614;2024-01-30T00:10:21;15.30;;;9.50;;
15878;SDS011;61999;51.514;14.614;2024-01-30T00:12:49;12.93;;;9.13;;
15878;SDS011;61999;51.514;14.614;2024-01-30T00:15:18;13.20;;;9.60;;
15878;SDS011;61999;51.514;14.614;2024-01-30T00:17:46;14.73;;;9.60;;
15878;SDS011;61999;51.514;14.614;2024-01-30T00:20:15;13.37;;;9.50;;
15878;SDS011;61999;51.514;14.614;2024-01-30T00:22:44;13.80;;;10.10;;
15878;SDS011;61999;51.514;14.614;2024-01-30T00:25:12;13.60;;;9.00;;
15878;SDS011;61999;51.514;14.614;2024-01-30T00:27:40;12.23;;;9.60;;
15878;SDS011;61999;51.514;14.614;2024-01-30T00:30:09;13.87;;;9.60;;
15878;SDS011;61999;51.514;14.614;2024-01-30T00:32:38;12.93;;;9.23;;
15878;SDS011;61999;51.514;14.614;2024-01-30T00:35:06;14.23;;;9.27;;
15878;SDS011;61999;51.514;14.614;2024-01-30T00:37:36;20.03;;;12.60;;
15878;SDS011;61999;51.514;14.614;2024-01-30T00:40:06;19.37;;;13.57;;
15878;SDS011;61999;51.514;14.614;2024-01-30T00:42:36;16.63;;;12.13;;
15878;SDS011;61999;51.514;14.614;2024-01-30T00:45:04;13.37;;;9.17;;
15878;SDS011;61999;51.514;14.614;2024-01-30T00:47:33;16.70;;;12.87;;
15878;SDS011;61999;51.514;14.614;2024-01-30T00:50:01;16.13;;;11.93;;
15878;SDS011;61999;51.514;14.614;2024-01-30T00:52:29;17.57;;;12.80;;
15878;SDS011;61999;51.514;14.614;2024-01-30T00:54:58;16.37;;;11.80;;
15878;SDS011;61999;51.514;14.614;2024-01-30T00:57:27;14.40;;;9.77;;
15878;SDS011;61999;51.514;14.614;2024-01-30T00:59:56;17.00;;;11.93;;
15878;SDS011;61999;51.514;14.614;2024-01-30T01:02:24;16.87;;;11.67;;
15878;SDS011;61999;51.514;14.614;2024-01-30T01:04:52;15.20;;;9.83;;
15878;SDS011;61999;51.514;14.614;2024-01-30T01:07:20;14.47;;;10.53;;
15878;SDS011;61999;51.514;14.614;2024-01-30T01:09:48;16.23;;;10.33;;
15878;SDS011;61999;51.514;14.614;2024-01-30T01:12:16;14.77;;;10.60;;
15878;SDS011;61999;51.514;14.614;2024-01-30T01:14:45;13.80;;;9.53;;
15878;SDS011;61999;51.514;14.614;2024-01-30T01:17:13;15.40;;;9.97;;
15878;SDS011;61999;51.514;14.614;2024-01-30T01:19:41;12.87;;;9.60;;
15878;SDS011;61999;51.514;14.614;2024-01-30T01:22:09;10.10;;;6.67;;
15878;SDS011;61999;51.514;14.614;2024-01-30T01:24:37;12.70;;;8.83;;
15878;SDS011;61999;51.514;14.614;2024-01-30T01:27:05;12.57;;;9.40;;
15878;SDS011;61999;51.514;14.614;2024-01-30T01:29:33;14.67;;;9.77;;
15878;SDS011;61999;51.514;14.614;2024-01-30T01:32:03;14.43;;;9.33;;
15878;SDS011;61999;51.514;14.614;2024-01-30T01:34:31;14.87;;;9.03;;
15878;SDS011;61999;51.514;14.614;2024-01-30T01:37:00;8.80;;;7.10;;
15878;SDS011;61999;51.514;14.614;2024-01-30T01:39:28;13.53;;;8.97;;
15878;SDS011;61999;51.514;14.614;2024-01-30T01:41:56;14.07;;;9.40;;
15878;SDS011;61999;51.514;14.614;2024-01-30T01:44:24;11.27;;;9.57;;
15878;SDS011;61999;51.514;14.614;2024-01-30T01:46:52;12.53;;;9.77;;
15878;SDS011;61999;51.514;14.614;2024-01-30T01:49:23;15.80;;;9.40;;
15878;SDS011;61999;51.514;14.614;2024-01-30T01:51:55;13.60;;;9.80;;
15878;SDS011;61999;51.514;14.614;2024-01-30T01:54:25;13.67;;;8.70;;
15878;SDS011;61999;51.514;14.614;2024-01-30T01:56:55;9.47;;;6.23;;
15878;SDS011;61999;51.514;14.614;2024-01-30T01:59:23;14.67;;;8.57;;
15878;SDS011;61999;51.514;14.614;2024-01-30T02:01:54;14.90;;;9.70;;
15878;SDS011;61999;51.514;14.614;2024-01-30T02:04:24;15.33;;;8.97;;
15878;SDS011;61999;51.514;14.614;2024-01-30T02:06:53;12.87;;;9.07;;
15878;SDS011;61999;51.514;14.614;2024-01-30T02:09:21;13.23;;;9.00;;
15878;SDS011;61999;51.514;14.614;2024-01-30T02:11:49;12.33;;;8.83;;
15878;SDS011;61999;51.514;14.614;2024-01-30T02:14:18;13.40;;;9.43;;
15878;SDS011;61999;51.514;14.614;2024-01-30T02:16:46;15.43;;;9.40;;
15878;SDS011;61999;51.514;14.614;2024-01-30T02:19:14;13.03;;;8.27;;
15878;SDS011;61999;51.514;14.614;2024-01-30T02:21:43;11.17;;;8.83;;
15878;SDS011;61999;51.514;14.614;2024-01-30T02:24:13;14.20;;;9.93;;
15878;SDS011;61999;51.514;14.614;2024-01-30T02:26:41;13.97;;;9.37;;
15878;SDS011;61999;51.514;14.614;2024-01-30T02:29:09;12.03;;;8.43;;
15878;SDS011;61999;51.514;14.614;2024-01-30T02:31:37;13.70;;;9.23;;
15878;SDS011;61999;51.514;14.614;2024-01-30T02:34:05;14.83;;;9.10;;
15878;SDS011;61999;51.514;14.614;2024-01-30T02:36:33;12.87;;;8.47;;
15878;SDS011;61999;51.514;14.614;2024-01-30T02:39:02;14.27;;;9.20;;
15878;SDS011;61999;51.514;14.614;2024-01-30T02:41:31;16.33;;;9.60;;
15878;SDS011;61999;51.514;14.614;2024-01-30T02:43:59;12.80;;;9.10;;
15878;SDS011;61999;51.514;14.614;2024-01-30T02:46:27;14.30;;;8.60;;
15878;SDS011;61999;51.514;14.614;2024-01-30T02:48:55;9.43;;;6.67;;
15878;SDS011;61999;51.514;14.614;2024-01-30T02:51:23;12.20;;;7.67;;
15878;SDS011;61999;51.514;14.614;2024-01-30T02:53:51;14.33;;;9.03;;
15878;SDS011;61999;51.514;14.614;2024-01-30T02:56:20;11.67;;;9.53;;
15878;SDS011;61999;51.514;14.614;2024-01-30T02:58:49;14.97;;;8.63;;
15878;SDS011;61999;51.514;14.614;2024-01-30T03:01:17;11.40;;;8.33;;
15878;SDS011;61999;51.514;14.614;2024-01-30T03:03:45;13.53;;;9.10;;
15878;SDS011;61999;51.514;14.614;2024-01-30T03:06:13;14.07;;;8.87;;
15878;SDS011;61999;51.514;14.614;2024-01-30T03:08:43;14.77;;;9.77;;
15878;SDS011;61999;51.514;14.614;2024-01-30T03:11:11;11.87;;;8.10;;
15878;SDS011;61999;51.514;14.614;2024-01-30T03:13:41;10.60;;;6.63;;
15878;SDS011;61999;51.514;14.614;2024-01-30T03:16:09;12.50;;;8.20;;
15878;SDS011;61999;51.514;14.614;2024-01-30T03:18:36;14.23;;;8.70;;
15878;SDS011;61999;51.514;14.614;2024-01-30T03:21:05;12.10;;;8.33;;
15878;SDS011;61999;51.514;14.614;2024-01-30T03:23:32;11.97;;;8.97;;
15878;SDS011;61999;51.514;14.614;2024-01-30T03:26:00;11.57;;;8.53;;
15878;SDS011;61999;51.514;14.614;2024-01-30T03:28:30;12.37;;;8.70;;
15878;SDS011;61999;51.514;14.614;2024-01-30T03:31:00;13.07;;;8.07;;
15878;SDS011;61999;51.514;14.614;2024-01-30T03:33:28;13.00;;;8.43;;
15878;SDS011;61999;51.514;14.614;2024-01-30T03:35:56;12.40;;;8.17;;
15878;SDS011;61999;51.514;14.614;2024-01-30T03:38:24;13.17;;;9.67;;
15878;SDS011;61999;51.514;14.614;2024-01-30T03:40:52;16.67;;;12.07;;
15878;SDS011;61999;51.514;14.614;2024-01-30T03:43:20;17.00;;;10.70;;
15878;SDS011;61999;51.514;14.614;2024-01-30T03:45:48;18.60;;;11.90;;
15878;SDS011;61999;51.514;14.614;2024-01-30T03:48:18;13.77;;;10.73;;
15878;SDS011;61999;51.514;14.614;2024-01-30T03:50:46;12.53;;;9.43;;
15878;SDS011;61999;51.514;14.614;2024-01-30T03:53:14;12.70;;;9.37;;
15878;SDS011;61999;51.514;14.614;2024-01-30T03:55:42;12.33;;;8.90;;
15878;SDS011;61999;51.514;14.614;2024-01-30T03:58:10;10.67;;;8.27;;
15878;SDS011;61999;51.514;14.614;2024-01-30T04:00:38;12.13;;;9.83;;
15878;SDS011;61999;51.514;14.614;2024-01-30T04:03:07;11.57;;;8.70;;
15878;SDS011;61999;51.514;14.614;2024-01-30T04:05:36;14.10;;;9.37;;
15878;SDS011;61999;51.514;14.614;2024-01-30T04:08:04;10.97;;;8.87;;
15878;SDS011;61999;51.514;14.614;2024-01-30T04:10:33;15.87;;;9.57;;
15878;SDS011;61999;51.514;14.614;2024-01-30T04:13:01;12.80;;;9.47;;
15878;SDS011;61999;51.514;14.614;2024-01-30T04:15:30;9.53;;;8.00;;
15878;SDS011;61999;51.514;14.614;2024-01-30T04:17:58;14.57;;;9.20;;
15878;SDS011;61999;51.514;14.614;2024-01-30T04:20:27;14.90;;;10.00;;
15878;SDS011;61999;51.514;14.614;2024-01-30T04:22:58;13.30;;;8.77;;
15878;SDS011;61999;51.514;14.614;2024-01-30T04:25:26;15.90;;;9.23;;
15878;SDS011;61999;51.514;14.614;2024-01-30T04:27:54;16.77;;;8.93;;
15878;SDS011;61999;51.514;14.614;2024-01-30T04:30:22;11.97;;;8.47;;
15878;SDS011;61999;51.514;14.614;2024-01-30T04:32:50;10.07;;;7.80;;
15878;SDS011;61999;51.514;14.614;2024-01-30T04:35:17;11.97;;;8.43;;
15878;SDS011;61999;51.514;14.614;2024-01-30T04:37:49;9.30;;;8.17;;
15878;SDS011;61999;51.514;14.614;2024-01-30T04:40:21;15.17;;;8.43;;
15878;SDS011;61999;51.514;14.614;2024-01-30T04:42:49;14.90;;;9.20;;
15878;SDS011;61999;51.514;14.614;2024-01-30T04:45:17;11.07;;;9.17;;
15878;SDS011;61999;51.514;14.614;2024-01-30T04:47:45;13.10;;;7.73;;
15878;SDS011;61999;51.514;14.614;2024-01-30T04:50:13;11.90;;;8.20;;
15878;SDS011;61999;51.514;14.614;2024-01-30T04:52:41;13.90;;;8.90;;
15878;SDS011;61999;51.514;14.614;2024-01-30T04:55:09;14.07;;;9.03;;
15878;SDS011;61999;51.514;14.614;2024-01-30T04:57:38;10.63;;;8.73;;
15878;SDS011;61999;51.514;14.614;2024-01-30T05:00:07;12.40;;;8.80;;
15878;SDS011;61999;51.514;14.614;2024-01-30T05:02:37;14.10;;;8.97;;
15878;SDS011;61999;51.514;14.614;2024-01-30T05:05:05;13.03;;;9.50;;
15878;SDS011;61999;51.514;14.614;2024-01-30T05:07:34;13.20;;;9.23;;
15878;SDS011;61999;51.514;14.614;2024-01-30T05:10:02;12.80;;;9.33;;
15878;SDS011;61999;51.514;14.614;2024-01-30T05:12:32;15.50;;;11.63;;
15878;SDS011;61999;51.514;14.614;2024-01-30T05:15:01;21.47;;;14.10;;
15878;SDS011;61999;51.514;14.614;2024-01-30T05:17:29;18.43;;;12.03;;
15878;SDS011;61999;51.514;14.614;2024-01-30T05:19:57;15.37;;;11.07;;
15878;SDS011;61999;51.514;14.614;2024-01-30T05:22:25;15.07;;;10.30;;
15878;SDS011;61999;51.514;14.614;2024-01-30T05:24:53;20.00;;;11.30;;
15878;SDS011;61999;51.514;14.614;2024-01-30T05:27:21;14.53;;;10.07;;
15878;SDS011;61999;51.514;14.614;2024-01-30T05:29:49;13.13;;;10.23;;
15878;SDS011;61999;51.514;14.614;2024-01-30T05:32:18;14.97;;;9.93;;
15878;SDS011;61999;51.514;14.614;2024-01-30T05:34:46;14.07;;;9.03;;
15878;SDS011;61999;51.514;14.614;2024-01-30T05:37:16;11.47;;;8.57;;
15878;SDS011;61999;51.514;14.614;2024-01-30T05:39:44;15.67;;;11.23;;
15878;SDS011;61999;51.514;14.614;2024-01-30T05:42:12;11.50;;;8.70;;
15878;SDS011;61999;51.514;14.614;2024-01-30T05:44:41;14.50;;;9.10;;
15878;SDS011;61999;51.514;14.614;2024-01-30T05:47:09;14.23;;;8.30;;
15878;SDS011;61999;51.514;14.614;2024-01-30T05:49:39;12.00;;;9.33;;
15878;SDS011;61999;51.514;14.614;2024-01-30T05:52:06;15.60;;;9.43;;
15878;SDS011;61999;51.514;14.614;2024-01-30T05:54:34;12.87;;;8.73;;
15878;SDS011;61999;51.514;14.614;2024-01-30T05:57:02;13.27;;;9.23;;
15878;SDS011;61999;51.514;14.614;2024-01-30T05:59:31;12.67;;;8.93;;
15878;SDS011;61999;51.514;14.614;2024-01-30T06:01:59;14.20;;;9.80;;
15878;SDS011;61999;51.514;14.614;2024-01-30T06:04:27;14.60;;;9.83;;
15878;SDS011;61999;51.514;14.614;2024-01-30T06:06:57;14.27;;;9.33;;
15878;SDS011;61999;51.514;14.614;2024-01-30T06:09:28;13.20;;;9.13;;
15878;SDS011;61999;51.514;14.614;2024-01-30T06:11:56;12.50;;;9.50;;
15878;SDS011;61999;51.514;14.614;2024-01-30T06:14:24;13.80;;;7.57;;
15878;SDS011;61999;51.514;14.614;2024-01-30T06:16:52;11.13;;;8.50;;
15878;SDS011;61999;51.514;14.614;2024-01-30T06:19:20;12.87;;;9.17;;
15878;SDS011;61999;51.514;14.614;2024-01-30T06:21:48;14.97;;;9.27;;
15878;SDS011;61999;51.514;14.614;2024-01-30T06:24:17;11.97;;;8.43;;
15878;SDS011;61999;51.514;14.614;2024-01-30T06:26:45;14.37;;;10.73;;
15878;SDS011;61999;51.514;14.614;2024-01-30T06:29:13;12.03;;;9.13;;
15878;SDS011;61999;51.514;14.614;2024-01-30T06:31:43;11.63;;;8.83;;
15878;SDS011;61999;51.514;14.614;2024-01-30T06:34:12;13.63;;;9.53;;
15878;SDS011;61999;51.514;14.614;2024-01-30T06:36:40;14.57;;;9.03;;
15878;SDS011;61999;51.514;14.614;2024-01-30T06:39:08;12.73;;;9.00;;
15878;SDS011;61999;51.514;14.614;2024-01-30T06:41:37;11.50;;;9.63;;
15878;SDS011;61999;51.514;14.614;2024-01-30T06:44:05;15.07;;;9.93;;
15878;SDS011;61999;51.514;14.614;2024-01-30T06:46:34;13.07;;;9.80;;
15878;SDS011;61999;51.514;14.614;2024-01-30T06:49:03;13.00;;;10.00;;
15878;SDS011;61999;51.514;14.614;2024-01-30T06:51:31;14.80;;;9.70;;
15878;SDS011;61999;51.514;14.614;2024-01-30T06:53:59;14.73;;;11.17;;
15878;SDS011;61999;51.514;14.614;2024-01-30T06:56:27;13.00;;;9.77;;
15878;SDS011;61999;51.514;14.614;2024-01-30T06:58:56;13.90;;;9.77;;
15878;SDS011;61999;51.514;14.614;2024-01-30T07:01:27;14.97;;;9.70;;
15878;SDS011;61999;51.514;14.614;2024-01-30T07:03:56;11.40;;;8.57;;
15878;SDS011;61999;51.514;14.614;2024-01-30T07:06:25;12.30;;;9.33;;
15878;SDS011;61999;51.514;14.614;2024-01-30T07:08:53;17.33;;;11.23;;
15878;SDS011;61999;51.514;14.614;2024-01-30T07:11:21;16.67;;;11.00;;
15878;SDS011;61999;51.514;14.614;2024-01-30T07:13:50;16.43;;;11.33;;
15878;SDS011;61999;51.514;14.614;2024-01-30T07:16:20;14.50;;;10.97;;
15878;SDS011;61999;51.514;14.614;2024-01-30T07:18:48;14.63;;;9.93;;
15878;SDS011;61999;51.514;14.614;2024-01-30T07:21:16;16.80;;;10.77;;
15878;SDS011;61999;51.514;14.614;2024-01-30T07:23:44;13.73;;;10.10;;
15878;SDS011;61999;51.514;14.614;2024-01-30T07:26:12;14.13;;;9.13;;
15878;SDS011;61999;51.514;14.614;2024-01-30T07:28:41;11.77;;;8.30;;
15878;SDS011;61999;51.514;14.614;2024-01-30T07:31:10;17.60;;;10.80;;
15878;SDS011;61999;51.514;14.614;2024-01-30T07:33:39;13.93;;;10.43;;
15878;SDS011;61999;51.514;14.614;2024-01-30T07:36:07;17.07;;;13.50;;
15878;SDS011;61999;51.514;14.614;2024-01-30T07:38:36;13.70;;;9.83;;
15878;SDS011;61999;51.514;14.614;2024-01-30T07:41:04;14.73;;;10.97;;
15878;SDS011;61999;51.514;14.614;2024-01-30T07:43:32;12.27;;;10.03;;
15878;SDS011;61999;51.514;14.614;2024-01-30T07:46:00;11.27;;;9.70;;
15878;SDS011;61999;51.514;14.614;2024-01-30T07:48:29;13.47;;;10.47;;
15878;SDS011;61999;51.514;14.614;2024-01-30T07:50:58;15.13;;;9.93;;
15878;SDS011;61999;51.514;14.614;2024-01-30T07:53:26;15.60;;;10.37;;
15878;SDS011;61999;51.514;14.614;2024-01-30T07:55:54;15.73;;;11.10;;
15878;SDS011;61999;51.514;14.614;2024-01-30T07:58:22;12.87;;;9.27;;
15878;SDS011;61999;51.514;14.614;2024-01-30T08:00:53;12.40;;;9.30;;
15878;SDS011;61999;51.514;14.614;2024-01-30T08:03:24;13.67;;;11.23;;
15878;SDS011;61999;51.514;14.614;2024-01-30T08:05:52;18.57;;;12.17;;
15878;SDS011;61999;51.514;14.614;2024-01-30T08:08:21;12.23;;;8.00;;
15878;SDS011;61999;51.514;14.614;2024-01-30T08:10:49;13.00;;;9.77;;
15878;SDS011;61999;51.514;14.614;2024-01-30T08:13:17;12.70;;;10.17;;
15878;SDS011;61999;51.514;14.614;2024-01-30T08:15:45;13.33;;;8.87;;
15878;SDS011;61999;51.514;14.614;2024-01-30T08:18:13;14.53;;;9.30;;
15878;SDS011;61999;51.514;14.614;2024-01-30T08:20:41;12.97;;;9.27;;
15878;SDS011;61999;51.514;14.614;2024-01-30T08:23:09;15.60;;;11.00;;
15878;SDS011;61999;51.514;14.614;2024-01-30T08:25:39;12.67;;;9.80;;
15878;SDS011;61999;51.514;14.614;2024-01-30T08:28:06;12.30;;;8.90;;
15878;SDS011;61999;51.514;14.614;2024-01-30T08:30:35;14.83;;;10.23;;
15878;SDS011;61999;51.514;14.614;2024-01-30T08:33:03;15.10;;;10.03;;
15878;SDS011;61999;51.514;14.614;2024-01-30T08:35:31;14.50;;;10.13;;
15878;SDS011;61999;51.514;14.614;2024-01-30T08:38:00;11.97;;;9.70;;
15878;SDS011;61999;51.514;14.614;2024-01-30T08:40:28;13.27;;;10.20;;
15878;SDS011;61999;51.514;14.614;2024-01-30T08:42:58;11.87;;;10.17;;
15878;SDS011;61999;51.514;14.614;2024-01-30T08:45:26;9.80;;;8.80;;
15878;SDS011;61999;51.514;14.614;2024-01-30T08:47:54;12.63;;;10.57;;
15878;SDS011;61999;51.514;14.614;2024-01-30T08:50:22;12.67;;;11.27;;
15878;SDS011;61999;51.514;14.614;2024-01-30T08:52:50;12.83;;;10.60;;
15878;SDS011;61999;51.514;14.614;2024-01-30T08:55:18;15.80;;;10.60;;
15878;SDS011;61999;51.514;14.614;2024-01-30T08:57:46;13.13;;;10.50;;
15878;SDS011;61999;51.514;14.614;2024-01-30T09:00:15;15.33;;;10.50;;
15878;SDS011;61999;51.514;14.614;2024-01-30T09:02:44;13.43;;;10.30;;
15878;SDS011;61999;51.514;14.614;2024-01-30T09:05:12;13.50;;;9.47;;
15878;SDS011;61999;51.514;14.614;2024-01-30T09:07:40;10.97;;;9.70;;
15878;SDS011;61999;51.514;14.614;2024-01-30T09:10:09;10.37;;;9.37;;
15878;SDS011;61999;51.514;14.614;2024-01-30T09:12:38;11.50;;;9.30;;
15878;SDS011;61999;51.514;14.614;2024-01-30T09:15:06;13.50;;;9.57;;
15878;SDS011;61999;51.514;14.614;2024-01-30T09:17:37;11.50;;;9.33;;
15878;SDS011;61999;51.514;14.614;2024-01-30T09:20:06;14.47;;;10.27;;
15878;SDS011;61999;51.514;14.614;2024-01-30T09:22:35;12.00;;;9.27;;
15878;SDS011;61999;51.514;14.614;2024-01-30T09:25:03;15.27;;;10.43;;
15878;SDS011;61999;51.514;14.614;2024-01-30T09:27:32;14.63;;;10.17;;
15878;SDS011;61999;51.514;14.614;2024-01-30T09:30:00;14.23;;;10.13;;
15878;SDS011;61999;51.514;14.614;2024-01-30T09:32:28;11.73;;;9.30;;
15878;SDS011;61999;51.514;14.614;2024-01-30T09:34:57;10.93;;;8.47;;
15878;SDS011;61999;51.514;14.614;2024-01-30T09:37:25;10.57;;;8.77;;
15878;SDS011;61999;51.514;14.614;2024-01-30T09:39:53;9.10;;;8.17;;
15878;SDS011;61999;51.514;14.614;2024-01-30T09:42:25;11.53;;;9.73;;
15878;SDS011;61999;51.514;14.614;2024-01-30T09:45:00;10.80;;;8.30;;
15878;SDS011;61999;51.514;14.614;2024-01-30T09:47:30;9.70;;;8.70;;
15878;SDS011;61999;51.514;14.614;2024-01-30T09:50:01;11.00;;;8.50;;
15878;SDS011;61999;51.514;14.614;2024-01-30T09:52:32;9.67;;;8.67;;
15878;SDS011;61999;51.514;14.614;2024-01-30T09:55:00;8.87;;;7.97;;
15878;SDS011;61999;51.514;14.614;2024-01-30T09:57:28;9.97;;;8.90;;
15878;SDS011;61999;51.514;14.614;2024-01-30T09:59:57;10.97;;;9.27;;
15878;SDS011;61999;51.514;14.614;2024-01-30T10:02:25;12.47;;;9.07;;
15878;SDS011;61999;51.514;14.614;2024-01-30T10:04:54;13.27;;;8.83;;
15878;SDS011;61999;51.514;14.614;2024-01-30T10:07:24;9.57;;;8.57;;
15878;SDS011;61999;51.514;14.614;2024-01-30T10:09:52;10.77;;;8.30;;
15878;SDS011;61999;51.514;14.614;2024-01-30T10:12:21;11.00;;;8.67;;
15878;SDS011;61999;51.514;14.614;2024-01-30T10:14:49;11.27;;;8.83;;
15878;SDS011;61999;51.514;14.614;2024-01-30T10:17:17;9.53;;;8.47;;
15878;SDS011;61999;51.514;14.614;2024-01-30T10:19:49;10.50;;;8.40;;
15878;SDS011;61999;51.514;14.614;2024-01-30T10:22:18;9.50;;;8.10;;
15878;SDS011;61999;51.514;14.614;2024-01-30T10:24:48;12.30;;;8.87;;
15878;SDS011;61999;51.514;14.614;2024-01-30T10:27:16;10.70;;;7.87;;
15878;SDS011;61999;51.514;14.614;2024-01-30T10:29:53;10.50;;;8.93;;
15878;SDS011;61999;51.514;14.614;2024-01-30T10:32:21;10.57;;;8.30;;
15878;SDS011;61999;51.514;14.614;2024-01-30T10:34:49;8.83;;;7.93;;
15878;SDS011;61999;51.514;14.614;2024-01-30T10:37:17;11.13;;;7.80;;
15878;SDS011;61999;51.514;14.614;2024-01-30T10:39:54;14.77;;;9.67;;
15878;SDS011;61999;51.514;14.614;2024-01-30T10:42:27;11.47;;;8.50;;
15878;SDS011;61999;51.514;14.614;2024-01-30T10:45:02;13.83;;;9.50;;
15878;SDS011;61999;51.514;14.614;2024-01-30T10:47:35;15.00;;;8.80;;
15878;SDS011;61999;51.514;14.614;2024-01-30T10:50:04;11.60;;;9.03;;
15878;SDS011;61999;51.514;14.614;2024-01-30T10:52:37;12.20;;;9.20;;
15878;SDS011;61999;51.514;14.614;2024-01-30T10:55:11;14.23;;;9.03;;
15878;SDS011;61999;51.514;14.614;2024-01-30T10:57:41;10.40;;;8.67;;
15878;SDS011;61999;51.514;14.614;2024-01-30T11:00:10;11.80;;;8.60;;
15878;SDS011;61999;51.514;14.614;2024-01-30T11:02:43;12.57;;;8.67;;
15878;SDS011;61999;51.514;14.614;2024-01-30T11:05:13;10.10;;;8.00;;
15878;SDS011;61999;51.514;14.614;2024-01-30T11:07:42;11.07;;;8.13;;
15878;SDS011;61999;51.514;14.614;2024-01-30T11:10:11;12.20;;;8.83;;
15878;SDS011;61999;51.514;14.614;2024-01-30T11:12:41;11.80;;;8.33;;
15878;SDS011;61999;51.514;14.614;2024-01-30T11:15:12;9.73;;;8.37;;
15878;SDS011;61999;51.514;14.614;2024-01-30T11:17:42;8.97;;;7.90;;
15878;SDS011;61999;51.514;14.614;2024-01-30T11:20:11;9.57;;;7.23;;
15878;SDS011;61999;51.514;14.614;2024-01-30T11:22:42;9.67;;;7.73;;
15878;SDS011;61999;51.514;14.614;2024-01-30T11:25:14;9.77;;;7.70;;
15878;SDS011;61999;51.514;14.614;2024-01-30T11:27:43;9.20;;;7.43;;
15878;SDS011;61999;51.514;14.614;2024-01-30T11:30:20;9.73;;;8.07;;
15878;SDS011;61999;51.514;14.614;2024-01-30T11:32:59;9.57;;;7.73;;
15878;SDS011;61999;51.514;14.614;2024-01-30T11:35:31;9.20;;;7.70;;
15878;SDS011;61999;51.514;14.614;2024-01-30T11:38:00;9.80;;;7.53;;
15878;SDS011;61999;51.514;14.614;2024-01-30T11:40:31;9.27;;;7.73;;
15878;SDS011;61999;51.514;14.614;2024-01-30T11:43:01;10.63;;;7.73;;
15878;SDS011;61999;51.514;14.614;2024-01-30T11:45:31;8.83;;;7.03;;
15878;SDS011;61999;51.514;14.614;2024-01-30T11:48:00;7.43;;;6.73;;
15878;SDS011;61999;51.514;14.614;2024-01-30T11:50:30;9.83;;;7.50;;
15878;SDS011;61999;51.514;14.614;2024-01-30T11:52:58;10.50;;;7.37;;
15878;SDS011;61999;51.514;14.614;2024-01-30T11:55:28;9.20;;;7.47;;
15878;SDS011;61999;51.514;14.614;2024-01-30T11:57:59;9.53;;;6.93;;
15878;SDS011;61999;51.514;14.614;2024-01-30T12:00:28;8.13;;;6.60;;
15878;SDS011;61999;51.514;14.614;2024-01-30T12:02:57;7.17;;;6.47;;
15878;SDS011;61999;51.514;14.614;2024-01-30T12:05:27;8.73;;;7.00;;
15878;SDS011;61999;51.514;14.614;2024-01-30T12:07:55;8.13;;;7.10;;
15878;SDS011;61999;51.514;14.614;2024-01-30T12:10:25;7.90;;;7.10;;
15878;SDS011;61999;51.514;14.614;2024-01-30T12:12:53;7.73;;;6.57;;
15878;SDS011;61999;51.514;14.614;2024-01-30T12:15:23;7.90;;;6.50;;
15878;SDS011;61999;51.514;14.614;2024-01-30T12:17:52;8.17;;;7.33;;
15878;SDS011;61999;51.514;14.614;2024-01-30T12:20:31;7.97;;;7.10;;
15878;SDS011;61999;51.514;14.614;2024-01-30T12:22:59;8.37;;;7.43;;
15878;SDS011;61999;51.514;14.614;2024-01-30T12:25:27;8.53;;;7.23;;
15878;SDS011;61999;51.514;14.614;2024-01-30T12:27:55;9.63;;;7.10;;
15878;SDS011;61999;51.514;14.614;2024-01-30T12:30:24;9.87;;;7.20;;
15878;SDS011;61999;51.514;14.614;2024-01-30T12:32:52;7.97;;;6.63;;
15878;SDS011;61999;51.514;14.614;2024-01-30T12:35:21;10.97;;;7.70;;
15878;SDS011;61999;51.514;14.614;2024-01-30T12:37:51;10.13;;;7.87;;
15878;SDS011;61999;51.514;14.614;2024-01-30T12:40:19;10.47;;;8.07;;
15878;SDS011;61999;51.514;14.614;2024-01-30T12:42:47;8.80;;;7.30;;
15878;SDS011;61999;51.514;14.614;2024-01-30T12:45:16;8.70;;;7.00;;
15878;SDS011;61999;51.514;14.614;2024-01-30T12:47:47;9.43;;;7.27;;
15878;SDS011;61999;51.514;14.614;2024-01-30T12:50:16;8.53;;;7.63;;
15878;SDS011;61999;51.514;14.614;2024-01-30T12:52:44;8.40;;;6.70;;
15878;SDS011;61999;51.514;14.614;2024-01-30T12:55:14;10.93;;;7.33;;
15878;SDS011;61999;51.514;14.614;2024-01-30T12:57:42;11.33;;;7.40;;
15878;SDS011;61999;51.514;14.614;2024-01-30T13:00:10;8.87;;;7.87;;
15878;SDS011;61999;51.514;14.614;2024-01-30T13:02:38;10.80;;;8.20;;
15878;SDS011;61999;51.514;14.614;2024-01-30T13:05:09;9.73;;;7.23;;
15878;SDS011;61999;51.514;14.614;2024-01-30T13:07:38;8.63;;;7.50;;
15878;SDS011;61999;51.514;14.614;2024-01-30T13:10:06;10.77;;;8.00;;
15878;SDS011;61999;51.514;14.614;2024-01-30T13:12:34;10.23;;;7.70;;
15878;SDS011;61999;51.514;14.614;2024-01-30T13:15:04;10.63;;;8.43;;
15878;SDS011;61999;51.514;14.614;2024-01-30T13:17:34;9.93;;;7.73;;
15878;SDS011;61999;51.514;14.614;2024-01-30T13:20:02;12.07;;;8.20;;
15878;SDS011;61999;51.514;14.614;2024-01-30T13:22:33;10.07;;;8.63;;
15878;SDS011;61999;51.514;14.614;2024-01-30T13:25:02;10.07;;;8.63;;
15878;SDS011;61999;51.514;14.614;2024-01-30T13:27:30;10.23;;;8.33;;
15878;SDS011;61999;51.514;14.614;2024-01-30T13:29:58;8.60;;;7.17;;
15878;SDS011;61999;51.514;14.614;2024-01-30T13:32:27;10.77;;;7.83;;
15878;SDS011;61999;51.514;14.614;2024-01-30T13:34:55;10.10;;;8.27;;
15878;SDS011;61999;51.514;14.614;2024-01-30T13:37:23;9.23;;;7.87;;
15878;SDS011;61999;51.514;14.614;2024-01-30T13:39:52;10.20;;;8.80;;
15878;SDS011;61999;51.514;14.614;2024-01-30T13:42:20;9.97;;;8.33;;
15878;SDS011;61999;51.514;14.614;2024-01-30T13:44:49;10.47;;;8.90;;
15878;SDS011;61999;51.514;14.614;2024-01-30T13:47:17;10.23;;;8.70;;
15878;SDS011;61999;51.514;14.614;2024-01-30T13:49:47;11.53;;;9.00;;
15878;SDS011;61999;51.514;14.614;2024-01-30T13:52:15;10.60;;;8.47;;
15878;SDS011;61999;51.514;14.614;2024-01-30T13:54:44;11.10;;;8.40;;
15878;SDS011;61999;51.514;14.614;2024-01-30T13:57:14;11.60;;;9.00;;
15878;SDS011;61999;51.514;14.614;2024-01-30T13:59:42;9.93;;;8.53;;
15878;SDS011;61999;51.514;14.614;2024-01-30T14:02:10;12.60;;;8.30;;
15878;SDS011;61999;51.514;14.614;2024-01-30T14:04:38;9.90;;;8.63;;
15878;SDS011;61999;51.514;14.614;2024-01-30T14:07:06;11.40;;;9.43;;
15878;SDS011;61999;51.514;14.614;2024-01-30T14:09:34;10.77;;;9.63;;
15878;SDS011;61999;51.514;14.614;2024-01-30T14:12:03;11.70;;;9.10;;
15878;SDS011;61999;51.514;14.614;2024-01-30T14:14:32;12.00;;;9.00;;
15878;SDS011;61999;51.514;14.614;2024-01-30T14:17:00;16.63;;;9.40;;
15878;SDS011;61999;51.514;14.614;2024-01-30T14:19:29;11.13;;;8.57;;
15878;SDS011;61999;51.514;14.614;2024-01-30T14:21:57;11.43;;;10.00;;
15878;SDS011;61999;51.514;14.614;2024-01-30T14:24:25;9.53;;;8.50;;
15878;SDS011;61999;51.514;14.614;2024-01-30T14:26:53;14.07;;;9.23;;
15878;SDS011;61999;51.514;14.614;2024-01-30T14:29:21;11.90;;;9.10;;